createdAt,value
2023-03-22T00:00:39.685Z,78.82
2023-03-22T00:03:06.789Z,78.79
2023-03-22T00:05:33.412Z,79.18
2023-03-22T00:08:00.225Z,78.83
2023-03-22T00:10:29.345Z,78.99
2023-03-22T00:12:55.995Z,79.01
2023-03-22T00:15:23.171Z,78.94
2023-03-22T00:17:53.020Z,79.40
2023-03-22T00:20:20.867Z,79.48
2023-03-22T00:22:47.748Z,79.56
2023-03-22T00:25:14.687Z,79.50
2023-03-22T00:27:41.448Z,79.76
2023-03-22T00:30:10.606Z,79.90
2023-03-22T00:32:38.723Z,79.65
2023-03-22T00:35:06.464Z,79.93
2023-03-22T00:37:34.107Z,79.65
2023-03-22T00:40:02.930Z,79.95
2023-03-22T00:42:29.570Z,79.66
2023-03-22T00:44:56.282Z,79.80
2023-03-22T00:47:23.615Z,79.88
2023-03-22T00:49:50.326Z,79.79
2023-03-22T00:52:17.015Z,79.47
2023-03-22T00:54:44.039Z,79.38
2023-03-22T00:57:13.031Z,79.15
2023-03-22T00:59:40.144Z,79.20
2023-03-22T01:02:07.435Z,79.17
2023-03-22T01:04:35.639Z,78.91
2023-03-22T01:07:05.739Z,78.80
2023-03-22T01:09:34.026Z,78.66
2023-03-22T01:12:02.204Z,78.44
2023-03-22T01:14:29.307Z,78.12
2023-03-22T01:16:57.835Z,77.31
2023-03-22T01:19:24.693Z,76.48
2023-03-22T01:21:51.387Z,76.06
2023-03-22T01:24:18.151Z,74.97
2023-03-22T01:26:44.821Z,74.10
2023-03-22T01:29:11.763Z,73.44
2023-03-22T01:31:38.656Z,72.73
2023-03-22T01:34:05.461Z,72.38
2023-03-22T01:36:32.264Z,71.87
2023-03-22T01:38:59.599Z,71.31
2023-03-22T01:41:27.815Z,70.80
2023-03-22T01:44:18.901Z,70.57
2023-03-22T01:46:47.873Z,70.40
2023-03-22T01:49:27.522Z,69.66
2023-03-22T01:51:57.823Z,69.54
2023-03-22T01:54:53.034Z,69.06
2023-03-22T01:57:19.902Z,69.13
2023-03-22T01:59:47.547Z,68.32
2023-03-22T02:02:19.409Z,68.13
2023-03-22T02:04:50.944Z,67.83
2023-03-22T02:07:26.266Z,67.50
2023-03-22T02:09:53.678Z,66.91
2023-03-22T02:12:42.526Z,66.58
2023-03-22T02:15:18.302Z,66.57
2023-03-22T02:18:06.594Z,66.31
2023-03-22T02:21:02.492Z,66.04
2023-03-22T02:23:35.372Z,65.54
2023-03-22T02:26:17.078Z,65.41
2023-03-22T02:28:57.204Z,65.04
2023-03-22T02:31:47.624Z,64.91
2023-03-22T02:34:38.646Z,64.63
2023-03-22T02:37:11.467Z,64.48
2023-03-22T02:39:56.889Z,64.44
2023-03-22T02:43:02.850Z,64.15
2023-03-22T02:45:41.485Z,64.16
2023-03-22T02:48:23.066Z,63.88
2023-03-22T02:50:56.636Z,64.07
2023-03-22T02:53:42.381Z,63.63
2023-03-22T02:56:36.288Z,63.83
2023-03-22T02:59:06.451Z,63.85
2023-03-22T03:01:52.461Z,63.51
2023-03-22T03:04:42.770Z,63.53
2023-03-22T03:07:14.413Z,63.63
2023-03-22T03:09:43.024Z,63.76
2023-03-22T03:12:18.847Z,63.68
2023-03-22T03:14:45.891Z,63.38
2023-03-22T03:17:21.872Z,63.54
2023-03-22T03:20:02.753Z,63.52
2023-03-22T03:22:45.735Z,63.48
2023-03-22T03:25:25.689Z,63.76
2023-03-22T03:28:30.438Z,63.56
2023-03-22T03:31:08.321Z,63.58
2023-03-22T03:33:40.256Z,63.62
2023-03-22T03:36:12.144Z,63.71
2023-03-22T03:38:44.620Z,63.70
2023-03-22T03:41:16.601Z,63.43
2023-03-22T03:43:45.913Z,63.20
2023-03-22T03:46:12.785Z,63.21
2023-03-22T03:48:43.055Z,63.29
2023-03-22T03:51:10.074Z,63.29
2023-03-22T03:53:36.857Z,63.18
2023-03-22T03:56:03.653Z,63.13
2023-03-22T03:58:31.072Z,63.16
2023-03-22T04:00:57.838Z,62.87
2023-03-22T04:03:24.687Z,62.87
2023-03-22T04:05:51.807Z,62.83
2023-03-22T04:08:18.614Z,63.08
2023-03-22T04:10:49.737Z,62.90
2023-03-22T04:13:16.981Z,62.99
2023-03-22T04:15:43.710Z,62.88
2023-03-22T04:18:11.433Z,63.11
2023-03-22T04:20:42.123Z,63.13
2023-03-22T04:23:11.979Z,63.09
2023-03-22T04:25:38.813Z,63.01
2023-03-22T04:28:05.957Z,62.88
2023-03-22T04:30:36.424Z,62.79
2023-03-22T04:33:07.350Z,62.99
2023-03-22T04:35:34.870Z,62.98
2023-03-22T04:38:01.694Z,63.01
2023-03-22T04:40:31.787Z,63.00
2023-03-22T04:42:59.294Z,62.87
2023-03-22T04:45:29.304Z,62.76
2023-03-22T04:47:56.546Z,62.91
2023-03-22T04:50:23.211Z,62.89
2023-03-22T04:52:50.350Z,62.96
2023-03-22T04:55:17.677Z,62.75
2023-03-22T04:57:44.400Z,62.87
2023-03-22T05:00:11.790Z,62.83
2023-03-22T05:02:41.547Z,62.82
2023-03-22T05:05:08.591Z,62.81
2023-03-22T05:07:35.372Z,62.87
2023-03-22T05:10:03.014Z,63.13
2023-03-22T05:12:29.704Z,63.16
2023-03-22T05:14:56.739Z,63.10
2023-03-22T05:17:23.850Z,63.37
2023-03-22T05:19:51.960Z,63.51
2023-03-22T05:22:19.588Z,63.78
2023-03-22T05:24:46.962Z,63.67
2023-03-22T05:27:14.411Z,63.87
2023-03-22T05:29:45.162Z,63.94
2023-03-22T05:32:12.403Z,64.29
2023-03-22T05:34:40.160Z,64.24
2023-03-22T05:37:07.079Z,64.58
2023-03-22T05:39:33.970Z,64.65
2023-03-22T05:43:00.582Z,64.59
2023-03-22T05:46:27.184Z,64.68
2023-03-22T05:53:47.801Z,65.17
2023-03-22T05:57:14.364Z,65.12
2023-03-22T06:04:23.110Z,65.15
2023-03-22T06:06:50.548Z,65.17
2023-03-22T06:09:18.122Z,65.37
2023-03-22T06:11:45.149Z,65.26
2023-03-22T06:14:12.462Z,65.15
2023-03-22T06:16:39.204Z,65.08
2023-03-22T06:19:06.027Z,64.93
2023-03-22T06:21:32.728Z,64.95
2023-03-22T06:23:59.383Z,64.70
2023-03-22T06:26:26.546Z,64.91
2023-03-22T06:28:53.305Z,64.80
2023-03-22T06:31:20.025Z,64.59
2023-03-22T06:33:46.924Z,64.61
2023-03-22T06:36:13.625Z,64.42
2023-03-22T06:38:40.389Z,64.20
2023-03-22T06:41:07.851Z,64.36
2023-03-22T06:43:34.598Z,64.35
2023-03-22T06:46:01.305Z,64.20
2023-03-22T06:48:28.541Z,63.97
2023-03-22T06:50:55.244Z,64.18
2023-03-22T06:53:21.913Z,64.27
2023-03-22T06:55:48.921Z,64.17
2023-03-22T06:58:15.642Z,63.96
2023-03-22T07:00:50.628Z,64.21
2023-03-22T07:03:17.324Z,64.10
2023-03-22T07:05:44.137Z,63.98
2023-03-22T07:08:10.989Z,64.23
2023-03-22T07:10:38.308Z,64.20
2023-03-22T07:13:05.366Z,64.16
2023-03-22T07:15:33.252Z,64.27
2023-03-22T07:18:02.925Z,64.16
2023-03-22T07:20:29.614Z,64.21
2023-03-22T07:22:56.630Z,64.23
2023-03-22T07:25:23.297Z,64.19
2023-03-22T07:27:50.011Z,64.01
2023-03-22T07:30:16.866Z,63.81
2023-03-22T07:32:43.636Z,63.94
2023-03-22T07:35:10.388Z,63.66
2023-03-22T07:37:37.297Z,63.65
2023-03-22T07:40:05.300Z,63.62
2023-03-22T07:42:31.979Z,63.58
2023-03-22T07:44:58.755Z,63.40
2023-03-22T07:47:39.947Z,63.40
2023-03-22T07:50:07.666Z,63.11
2023-03-22T07:52:34.504Z,63.06
2023-03-22T07:55:01.239Z,62.97
2023-03-22T07:57:28.032Z,63.13
2023-03-22T07:59:54.741Z,62.95
2023-03-22T08:02:21.751Z,63.02
2023-03-22T08:04:53.170Z,62.83
2023-03-22T08:07:21.258Z,62.85
2023-03-22T08:09:48.017Z,62.84
2023-03-22T08:12:14.937Z,62.92
2023-03-22T08:14:41.742Z,62.65
2023-03-22T08:17:08.451Z,62.50
2023-03-22T08:19:35.700Z,62.75
2023-03-22T08:22:02.506Z,62.67
2023-03-22T08:24:29.226Z,62.34
2023-03-22T08:26:56.557Z,62.39
2023-03-22T08:29:23.616Z,62.47
2023-03-22T08:31:51.955Z,62.42
2023-03-22T08:34:19.191Z,62.05
2023-03-22T08:36:46.351Z,62.12
2023-03-22T08:39:13.666Z,62.22
2023-03-22T08:41:40.633Z,61.98
2023-03-22T08:44:07.608Z,61.73
2023-03-22T08:46:34.411Z,61.58
2023-03-22T08:49:03.168Z,61.80
2023-03-22T08:51:31.413Z,61.64
2023-03-22T08:54:00.269Z,61.22
2023-03-22T08:56:27.554Z,61.20
2023-03-22T08:58:54.259Z,61.16
2023-03-22T09:01:28.006Z,60.59
2023-03-22T09:03:54.938Z,60.70
2023-03-22T09:06:21.674Z,60.62
2023-03-22T09:08:52.302Z,60.38
2023-03-22T09:11:19.560Z,60.17
2023-03-22T09:13:46.426Z,59.75
2023-03-22T09:16:13.869Z,59.64
2023-03-22T09:18:41.145Z,59.52
2023-03-22T09:26:02.432Z,58.94
2023-03-22T09:29:25.669Z,59.13
2023-03-22T09:31:53.748Z,58.96
2023-03-22T09:34:20.627Z,58.59
2023-03-22T09:36:48.059Z,58.38
2023-03-22T09:39:16.426Z,58.32
2023-03-22T09:41:51.661Z,58.50
2023-03-22T09:44:27.196Z,58.45
2023-03-22T09:46:56.908Z,58.22
2023-03-22T09:49:50.447Z,58.05
2023-03-22T09:52:18.279Z,57.75
2023-03-22T09:54:47.430Z,58.22
2023-03-22T09:57:29.021Z,57.89
2023-03-22T10:00:11.862Z,57.51
2023-03-22T10:02:58.445Z,57.70
2023-03-22T10:05:50.303Z,57.40
2023-03-22T10:08:41.283Z,57.54
2023-03-22T10:11:21.473Z,57.17
2023-03-22T10:13:57.609Z,57.44
2023-03-22T10:16:33.349Z,57.31
2023-03-22T10:19:17.746Z,57.61
2023-03-22T10:21:48.587Z,57.22
2023-03-22T10:24:30.075Z,57.28
2023-03-22T10:26:57.419Z,56.85
2023-03-22T10:29:32.276Z,57.24
2023-03-22T10:32:14.064Z,56.88
2023-03-22T10:34:40.857Z,56.82
2023-03-22T10:37:14.827Z,56.57
2023-03-22T10:39:46.712Z,56.14
2023-03-22T10:42:18.039Z,56.05
2023-03-22T10:44:52.194Z,56.26
2023-03-22T10:47:29.756Z,55.92
2023-03-22T10:49:59.243Z,55.79
2023-03-22T10:52:35.065Z,55.55
2023-03-22T10:55:04.691Z,55.37
2023-03-22T10:57:31.452Z,55.31
2023-03-22T10:59:58.438Z,55.08
2023-03-22T11:02:33.078Z,54.98
2023-03-22T11:05:03.747Z,54.73
2023-03-22T11:07:35.108Z,54.12
2023-03-22T11:10:11.132Z,54.08
2023-03-22T11:12:44.960Z,53.87
2023-03-22T11:15:28.347Z,53.91
2023-03-22T11:18:01.044Z,53.48
2023-03-22T11:20:29.952Z,53.68
2023-03-22T11:23:02.763Z,53.42
2023-03-22T11:25:36.006Z,53.31
2023-03-22T11:28:05.622Z,52.97
2023-03-22T11:30:33.829Z,53.00
2023-03-22T11:33:21.300Z,53.02
2023-03-22T11:35:57.848Z,52.65
2023-03-22T11:38:32.855Z,52.27
2023-03-22T11:41:02.630Z,52.33
2023-03-22T11:43:52.834Z,51.80
2023-03-22T11:46:21.538Z,51.56
2023-03-22T11:48:52.051Z,51.92
2023-03-22T11:51:29.987Z,51.88
2023-03-22T11:54:27.684Z,52.62
2023-03-22T11:56:58.356Z,52.92
2023-03-22T11:59:28.788Z,53.03
2023-03-22T12:02:05.376Z,52.34
2023-03-22T12:04:38.363Z,51.81
2023-03-22T12:07:13.792Z,51.18
2023-03-22T12:10:18.823Z,50.23
2023-03-22T12:12:52.709Z,49.50
2023-03-22T12:15:23.538Z,48.71
2023-03-22T12:18:13.538Z,48.44
2023-03-22T12:20:50.153Z,48.16
2023-03-22T12:23:20.072Z,47.62
2023-03-22T12:25:53.105Z,47.37
2023-03-22T12:28:25.528Z,47.19
2023-03-22T12:30:56.491Z,47.05
2023-03-22T12:33:31.259Z,46.61
2023-03-22T12:36:00.851Z,46.15
2023-03-22T12:38:41.359Z,45.27
2023-03-22T12:41:36.564Z,44.44
2023-03-22T12:45:06.192Z,43.96
2023-03-22T12:47:43.588Z,43.33
2023-03-22T12:50:55.561Z,42.41
2023-03-22T12:53:27.022Z,41.58
2023-03-22T12:55:56.348Z,40.58
2023-03-22T12:58:26.177Z,39.59
2023-03-22T13:00:58.559Z,38.66
2023-03-22T13:03:46.195Z,37.65
2023-03-22T13:06:34.495Z,36.73
2023-03-22T13:09:34.905Z,35.80
2023-03-22T13:12:25.339Z,34.96
2023-03-22T13:14:58.859Z,34.41
2023-03-22T13:17:26.172Z,33.44
2023-03-22T13:19:55.065Z,32.27
2023-03-22T13:22:39.562Z,31.67
2023-03-22T13:25:29.136Z,30.57
2023-03-22T13:28:22.150Z,30.22
2023-03-22T13:30:57.526Z,29.53
2023-03-22T13:33:28.224Z,29.16
2023-03-22T13:35:59.302Z,28.52
2023-03-22T13:38:35.093Z,27.77
2023-03-22T13:41:22.970Z,27.46
2023-03-22T13:43:52.033Z,26.91
2023-03-22T13:46:21.526Z,26.08
2023-03-22T13:48:48.830Z,25.96
2023-03-22T13:51:30.270Z,25.41
2023-03-22T13:54:18.301Z,24.71
2023-03-22T13:56:54.479Z,24.60
2023-03-22T13:59:30.338Z,24.28
2023-03-22T14:02:11.203Z,23.81
2023-03-22T14:04:53.430Z,23.28
2023-03-22T14:07:44.670Z,23.38
2023-03-22T14:10:20.047Z,23.24
2023-03-22T14:13:22.071Z,23.19
2023-03-22T14:15:55.906Z,23.19
2023-03-22T14:18:31.744Z,23.75
2023-03-22T14:21:22.002Z,24.13
